Portada
METAR-TAF:

METAR-TAF

Aeroports :

Kwajalein, Illes Marshall

latitud: 08-43N, longitud: 167-44E, altitud: 3 m

Observació

L'informe es va fer fa 14 minuts, a les 17:40 UTC
Vent 6 kt del Est
Temperatura 27°C
Humitat 74%
Pressió 1007 hPa
Visibilitat: 16.1 km
Cel clar

METAR: PKWA 011740Z AUTO 09006KT 10SM CLR 27/22 A2973 RMK AO2 T02650219

Hora: 05:54 (17:54 UTC)

Pronòstic

L'informe es va fer fa 28 minuts, a les 17:26 UTC
Pronòstic vàlid del 01 a les 18 UTC al 02 a les 18 UTC
Vent 8 kt del Est/Nord-Est
Visibilitat: 10 km
Escasses núvols a una alçada de 2500 ft
xàfecs en les proximitats

TAF: PKWA 011726Z 0118/0218 07008KT P6SM VCSH FEW025

Observacions i pronòstics meteorològics de més de 4000 aeroports (METAR i TAF).

Les estacions disponibles són els punts grocs i vermells al mapa.

Posi el ratolí al punt desitjat per veure el nom de l'estació.

Feu clic per veure les observacions i els pronòstics meteorològics.

Per canviar el mapa: feu clic els botons verds amb una creu de color negre per apropar; al botó verd amb un guió per allunyar la imatge; o en les fletxes verdes per a mapes adjacents.


METAR-TAF: